Time;durP1;ratioP1;P1;durP2;ratioP2;P2;SDS_P1;SDS_P2;PMS_P1;PMS_P2;Temp;Humidity;BMP_temperature;BMP_pressure;BME280_temperature;BME280_humidity;BME280_pressure;Samples;Min_cycle;Max_cycle;Signal;HPM_P1;HPM_P2
2023/05/10 00:03:44;;;;;;;0.37;0.30;;;;;;;;;;21076540;28;20577;-79
2023/05/10 00:13:45;;;;;;;0.47;0.20;;;;;;;;;;21082616;28;20293;-79
2023/05/10 00:23:47;;;;;;;0.27;0.27;;;;;;;;;;21074419;28;20237;-79
2023/05/10 00:33:49;;;;;;;0.30;0.30;;;;;;;;;;21056292;28;20302;-79
2023/05/10 00:43:51;;;;;;;0.27;0.20;;;;;;;;;;21059101;28;20197;-79
2023/05/10 00:53:53;;;;;;;0.40;0.37;;;;;;;;;;21067346;28;20249;-79
2023/05/10 01:03:55;;;;;;;0.60;0.40;;;;;;;;;;21062635;28;20212;-79
2023/05/10 01:13:58;;;;;;;0.20;0.20;;;;;;;;;;21101660;28;20232;-79
2023/05/10 01:24:09;;;;;;;0.37;0.30;;;;;;;;;;21098554;28;20234;-79
2023/05/10 01:34:25;;;;;;;0.30;0.30;;;16.30;99.90;;;;;;21116248;28;20273;-79
2023/05/10 01:44:39;;;;;;;0.27;0.27;;;;;;;;;;21091309;28;20234;-79
2023/05/10 01:54:43;;;;;;;0.20;0.20;;;;;;;;;;21074398;28;20729;-79
2023/05/10 02:04:46;;;;;;;0.40;0.30;;;16.20;99.90;;;;;;20987880;28;20225;-79
2023/05/10 02:14:48;;;;;;;0.53;0.37;;;;;;;;;;20983629;28;20229;-78
2023/05/10 02:24:50;;;;;;;0.47;0.30;;;;;;;;;;21000823;28;20201;-79
2023/05/10 02:34:53;;;;;;;1.20;0.50;;;;;;;;;;20964397;28;20220;-79
2023/05/10 02:45:00;;;;;;;0.23;0.23;;;16.10;99.90;;;;;;20998377;28;20213;-79
2023/05/10 02:55:03;;;;;;;1.23;0.40;;;;;;;;;;20980120;28;20225;-79
2023/05/10 03:05:08;;;;;;;0.50;0.30;;;;;;;;;;20979045;28;20209;-79
2023/05/10 03:15:19;;;;;;;0.43;0.40;;;;;;;;;;20978307;28;20259;-81
2023/05/10 03:25:22;;;;;;;0.40;0.20;;;;;;;;;;20991268;28;20713;-79
2023/05/10 03:35:23;;;;;;;0.20;0.20;;;15.90;99.90;;;;;;20998357;28;20217;-79
2023/05/10 03:45:26;;;;;;;0.70;0.37;;;;;;;;;;20957443;28;20656;-79
2023/05/10 03:55:29;;;;;;;0.90;0.60;;;;;;;;;;20990809;28;20225;-79
2023/05/10 04:05:31;;;;;;;1.20;0.60;;;;;;;;;;20991632;28;20213;-80
2023/05/10 04:15:33;;;;;;;0.47;0.30;;;;;;;;;;20981601;28;20229;-79
2023/05/10 04:25:35;;;;;;;0.63;0.40;;;;;;;;;;20961044;28;20214;-79
2023/05/10 04:35:38;;;;;;;0.90;0.40;;;;;;;;;;20988007;28;20264;-79
2023/05/10 04:45:40;;;;;;;0.30;0.30;;;;;;;;;;20973995;28;20691;-80
2023/05/10 04:55:42;;;;;;;1.80;0.90;;;;;;;;;;20991495;28;20232;-81
2023/05/10 05:05:44;;;;;;;1.00;0.50;;;;;;;;;;21012301;28;20201;-81
2023/05/10 05:15:46;;;;;;;0.67;0.47;;;;;;;;;;20962106;28;20248;-81
2023/05/10 05:25:48;;;;;;;0.60;0.50;;;;;;;;;;20935286;28;20252;-80
2023/05/10 05:35:50;;;;;;;0.47;0.40;;;;;;;;;;20976948;28;20260;-80
2023/05/10 05:45:55;;;;;;;1.20;0.50;;;;;;;;;;21012017;28;21053;-80
2023/05/10 05:55:58;;;;;;;1.13;0.50;;;16.00;99.90;;;;;;21007671;28;20306;-80
2023/05/10 06:06:00;;;;;;;0.50;0.40;;;;;;;;;;20992200;28;20185;-80
2023/05/10 06:16:03;;;;;;;0.50;0.50;;;;;;;;;;20953271;28;20366;-80
2023/05/10 06:26:04;;;;;;;0.30;0.30;;;;;;;;;;20984111;28;20574;-81
2023/05/10 06:36:06;;;;;;;0.80;0.60;;;;;;;;;;20966104;28;20237;-83
2023/05/10 06:46:08;;;;;;;0.90;0.60;;;;;;;;;;21021041;28;20221;-80
2023/05/10 06:56:09;;;;;;;0.30;0.30;;;;;;;;;;20999753;28;20205;-80
2023/05/10 07:06:11;;;;;;;0.50;0.50;;;;;;;;;;21018399;28;20244;-80
2023/05/10 07:16:13;;;;;;;2.57;0.50;;;;;;;;;;21000123;28;20565;-80
2023/05/10 07:26:17;;;;;;;0.30;0.30;;;;;;;;;;20989219;28;20221;-80
2023/05/10 07:36:18;;;;;;;0.30;0.30;;;;;;;;;;20938830;28;20220;-79
2023/05/10 07:46:20;;;;;;;0.40;0.30;;;;;;;;;;20979031;28;20967;-80
2023/05/10 07:56:26;;;;;;;0.37;0.30;;;;;;;;;;20988607;28;20225;-80
2023/05/10 08:06:29;;;;;;;0.40;0.20;;;;;;;;;;20924484;28;20268;-79
2023/05/10 08:16:32;;;;;;;1.17;0.27;;;;;;;;;;20915188;28;20213;-80
2023/05/10 08:26:34;;;;;;;0.50;0.40;;;;;;;;;;20894164;28;20271;-79
2023/05/10 08:36:36;;;;;;;0.40;0.40;;;;;;;;;;21006836;28;20693;-80
2023/05/10 08:46:39;;;;;;;1.10;0.40;;;;;;;;;;20987105;28;20237;-80
2023/05/10 08:56:41;;;;;;;0.30;0.30;;;;;;;;;;20953258;28;20217;-80
2023/05/10 09:06:43;;;;;;;0.20;0.20;;;;;;;;;;20951666;28;20229;-80
2023/05/10 09:16:44;;;;;;;1.13;0.30;;;;;;;;;;20972020;28;20236;-79
2023/05/10 09:26:48;;;;;;;0.60;0.60;;;17.10;99.90;;;;;;20988875;28;20213;-80
2023/05/10 09:36:57;;;;;;;0.43;0.23;;;;;;;;;;20988696;28;20252;-81
2023/05/10 09:47:00;;;;;;;1.30;0.30;;;;;;;;;;20987736;28;20283;-79
2023/05/10 09:57:04;;;;;;;0.30;0.30;;;;;;;;;;20953862;28;20557;-80
2023/05/10 10:07:07;;;;;;;0.50;0.30;;;;;;;;;;20891069;28;20225;-81
2023/05/10 10:17:09;;;;;;;0.30;0.20;;;;;;;;;;20871184;28;20217;-80
2023/05/10 10:27:20;;;;;;;0.30;0.30;;;18.10;99.90;;;;;;20907021;28;20233;-80
2023/05/10 10:37:22;;;;;;;0.60;0.30;;;;;;;;;;21026403;28;20263;-80
2023/05/10 10:47:24;;;;;;;0.20;0.20;;;;;;;;;;20970663;28;20287;-80
2023/05/10 10:57:26;;;;;;;0.60;0.40;;;18.10;99.90;;;;;;20916828;28;20558;-80
2023/05/10 11:07:28;;;;;;;0.30;0.30;;;;;;;;;;20882803;28;20226;-79
2023/05/10 11:17:31;;;;;;;0.20;0.20;;;;;;;;;;20931634;28;20213;-80
2023/05/10 11:27:33;;;;;;;0.77;0.40;;;;;;;;;;21027064;28;20221;-82
2023/05/10 11:37:35;;;;;;;0.53;0.20;;;;;;;;;;21051887;28;20236;-81
2023/05/10 11:47:37;;;;;;;0.30;0.20;;;;;;;;;;20989700;28;20221;-81
2023/05/10 11:57:41;;;;;;;1.83;0.50;;;;;;;;;;20979631;28;20278;-81
2023/05/10 12:07:42;;;;;;;1.13;0.20;;;;;;;;;;21035111;28;20245;-81
2023/05/10 12:17:45;;;;;;;1.37;0.40;;;;;;;;;;20980628;28;20764;-82
2023/05/10 12:27:55;;;;;;;2.87;0.67;;;18.10;99.90;;;;;;20993848;28;20233;-81
2023/05/10 12:37:57;;;;;;;0.43;0.30;;;;;;;;;;20993177;28;20240;-81
2023/05/10 12:47:59;;;;;;;0.83;0.50;;;;;;;;;;21020427;28;20225;-82
2023/05/10 12:58:01;;;;;;;1.50;0.30;;;;;;;;;;21108480;28;20221;-80
2023/05/10 13:08:02;;;;;;;0.20;0.20;;;;;;;;;;21056824;28;20224;-80
2023/05/10 13:18:04;;;;;;;3.30;0.30;;;;;;;;;;21071262;28;20209;-81
2023/05/10 13:28:06;;;;;;;1.80;0.37;;;;;;;;;;21055072;28;20315;-80
2023/05/10 13:38:07;;;;;;;1.40;0.20;;;;;;;;;;21072073;28;20228;-80
2023/05/10 13:48:09;;;;;;;0.53;0.30;;;;;;;;;;21029278;28;20217;-80
2023/05/10 13:58:11;;;;;;;0.20;0.20;;;;;;;;;;21002544;28;20244;-80
2023/05/10 14:08:14;;;;;;;2.07;0.37;;;;;;;;;;20965381;28;20253;-80
2023/05/10 14:18:16;;;;;;;0.20;0.20;;;;;;;;;;21048502;28;20228;-80
2023/05/10 14:28:18;;;;;;;0.20;0.20;;;;;;;;;;21082911;28;20286;-80
2023/05/10 14:38:20;;;;;;;0.30;0.20;;;;;;;;;;21048449;28;20217;-80
2023/05/10 14:48:21;;;;;;;0.20;0.20;;;;;;;;;;21097466;28;20229;-80
2023/05/10 14:58:23;;;;;;;0.20;0.20;;;;;;;;;;21080825;28;20217;-80
2023/05/10 15:08:25;;;;;;;0.47;0.20;;;;;;;;;;21078636;28;20302;-80
2023/05/10 15:18:27;;;;;;;0.20;0.20;;;;;;;;;;21061088;28;20215;-80
2023/05/10 15:28:29;;;;;;;0.90;0.43;;;;;;;;;;21060630;28;20715;-80
2023/05/10 15:38:31;;;;;;;0.27;0.20;;;;;;;;;;21077466;28;20218;-80
2023/05/10 15:48:33;;;;;;;0.33;0.20;;;;;;;;;;21058463;28;20242;-80
2023/05/10 15:58:34;;;;;;;2.00;0.33;;;;;;;;;;21024566;28;20650;-80
2023/05/10 16:08:36;;;;;;;0.67;0.30;;;;;;;;;;21074889;28;20700;-80
2023/05/10 16:18:38;;;;;;;0.27;0.20;;;;;;;;;;21076075;28;20206;-81
2023/05/10 16:28:40;;;;;;;0.90;0.30;;;;;;;;;;21006552;28;21148;-81
2023/05/10 16:38:42;;;;;;;0.20;0.20;;;;;;;;;;21016371;28;20233;-80
2023/05/10 16:48:44;;;;;;;1.23;0.20;;;;;;;;;;21070244;28;20292;-80
2023/05/10 16:58:48;;;;;;;0.60;0.20;;;;;;;;;;20960755;28;20227;-81
2023/05/10 17:08:50;;;;;;;0.67;0.40;;;;;;;;;;20985610;28;20264;-81
2023/05/10 17:18:52;;;;;;;0.20;0.20;;;;;;;;;;21027715;28;20271;-81
2023/05/10 17:28:54;;;;;;;0.20;0.20;;;;;;;;;;21050780;28;20254;-80
2023/05/10 17:38:57;;;;;;;1.23;0.30;;;;;;;;;;21018021;28;20631;-82
2023/05/10 17:49:00;;;;;;;0.30;0.20;;;;;;;;;;21029383;28;20722;-81
2023/05/10 17:59:02;;;;;;;0.30;0.20;;;;;;;;;;20893289;28;20210;-81
2023/05/10 18:09:06;;;;;;;0.67;0.30;;;;;;;;;;20935620;28;21065;-81
2023/05/10 18:19:10;;;;;;;2.47;0.90;;;;;;;;;;20962926;28;20295;-80
2023/05/10 18:29:12;;;;;;;0.87;0.20;;;;;;;;;;20992231;28;20288;-80
2023/05/10 18:39:13;;;;;;;0.33;0.20;;;;;;;;;;20997332;28;20238;-80
2023/05/10 18:49:15;;;;;;;0.37;0.20;;;;;;;;;;21026499;28;20233;-80
2023/05/10 18:59:18;;;;;;;0.27;0.20;;;;;;;;;;21028833;28;20674;-80
2023/05/10 19:09:19;;;;;;;1.90;0.30;;;;;;;;;;21028171;28;20251;-80
2023/05/10 19:19:22;;;;;;;0.50;0.30;;;;;;;;;;20954023;28;20320;-80
2023/05/10 19:29:24;;;;;;;0.20;0.20;;;;;;;;;;21002307;28;20634;-81
2023/05/10 19:39:26;;;;;;;0.30;0.30;;;;;;;;;;21087464;28;20212;-80
2023/05/10 19:49:28;;;;;;;0.80;0.30;;;;;;;;;;21076450;28;20232;-81
2023/05/10 19:59:30;;;;;;;0.57;0.30;;;;;;;;;;21016456;28;20687;-80
2023/05/10 20:09:32;;;;;;;0.20;0.20;;;;;;;;;;20976757;28;20260;-80
2023/05/10 20:19:33;;;;;;;1.23;0.33;;;;;;;;;;20988372;28;20274;-81
2023/05/10 20:29:35;;;;;;;0.87;0.30;;;;;;;;;;20990399;28;20221;-81
2023/05/10 20:39:37;;;;;;;0.90;0.30;;;;;;;;;;20977409;28;20217;-81
2023/05/10 20:49:39;;;;;;;0.30;0.30;;;;;;;;;;20969924;28;20233;-81
2023/05/10 20:59:40;;;;;;;0.10;0.10;;;;;;;;;;20978312;28;20694;-81
2023/05/10 21:09:43;;;;;;;0.90;0.30;;;;;;;;;;20986843;28;20713;-81
2023/05/10 21:19:46;;;;;;;0.53;0.30;;;;;;;;;;21035536;28;20233;-81
2023/05/10 21:29:51;;;;;;;0.40;0.30;;;;;;;;;;21124904;28;20247;-80
2023/05/10 21:39:55;;;;;;;0.40;0.30;;;;;;;;;;21075624;28;20264;-80
2023/05/10 21:49:56;;;;;;;0.50;0.30;;;;;;;;;;21054093;28;20297;-80
2023/05/10 21:59:58;;;;;;;0.50;0.40;;;;;;;;;;21088122;28;20674;-81
2023/05/10 22:10:00;;;;;;;0.40;0.30;;;;;;;;;;21085042;28;20766;-81
2023/05/10 22:20:02;;;;;;;0.20;0.20;;;;;;;;;;21067991;28;20216;-81
2023/05/10 22:30:04;;;;;;;0.20;0.20;;;;;;;;;;21073557;28;20228;-81
2023/05/10 22:40:10;;;;;;;0.40;0.30;;;;;;;;;;21012189;28;20695;-81
2023/05/10 22:50:14;;;;;;;0.50;0.30;;;;;;;;;;21043683;28;20228;-81
2023/05/10 23:00:16;;;;;;;0.50;0.30;;;16.40;99.90;;;;;;21076893;28;20212;-81
2023/05/10 23:10:18;;;;;;;0.40;0.23;;;;;;;;;;21061844;28;20228;-80
2023/05/10 23:20:20;;;;;;;1.50;0.20;;;;;;;;;;20965811;28;20281;-80
2023/05/10 23:30:21;;;;;;;0.67;0.40;;;;;;;;;;20994571;28;20286;-80
2023/05/10 23:40:23;;;;;;;0.70;0.30;;;;;;;;;;20958572;28;20284;-81
2023/05/10 23:50:25;;;;;;;0.27;0.27;;;;;;;;;;20897652;28;20675;-80
